Time;durP1;ratioP1;P1;durP2;ratioP2;P2;SDS_P1;SDS_P2;PMS_P1;PMS_P2;Temp;Humidity;BMP_temperature;BMP_pressure;BME280_temperature;BME280_humidity;BME280_pressure;Samples;Min_cycle;Max_cycle;Signal;HPM_P1;HPM_P2
2022/06/24 00:01:24;;;;;;;;;;;;;;;26.35;34.01;100638.73;104920;1301;61391;-81
2022/06/24 00:03:50;;;;;;;;;;;;;;;26.35;34.08;100641.45;105160;1303;61239;-81
2022/06/24 00:06:16;;;;;;;;;;;;;;;26.35;34.07;100643.46;105134;1302;62077;-81
2022/06/24 00:08:58;;;;;;;;;;;;;;;26.34;34.20;100644.38;105164;1303;61280;-81
2022/06/24 00:11:27;;;;;;;;;;;;;;;26.34;34.19;100651.62;105277;1303;61533;-81
2022/06/24 00:14:03;;;;;;;;;;;;;;;26.34;34.15;100653.81;105214;1302;72743;-81
2022/06/24 00:16:28;;;;;;;;;;;;;;;26.34;34.13;100652.19;105182;1301;75628;-81
2022/06/24 00:19:20;;;;;;;;;;;;;;;26.34;34.19;100652.36;105257;1302;61249;-81
2022/06/24 00:22:04;;;;;;;;;;;;;;;26.34;34.17;100650.77;105199;1302;62461;-81
2022/06/24 00:24:30;;;;;;;;;;;;;;;26.34;34.26;100648.06;105229;1301;73908;-81
2022/06/24 00:26:56;;;;;;;;;;;;;;;26.34;34.16;100650.77;105228;1303;61260;-81
2022/06/24 00:29:21;;;;;;;;;;;;;;;26.33;34.30;100655.49;104919;1302;59372;-81
2022/06/24 00:32:03;;;;;;;;;;;;;;;26.33;34.30;100653.15;105117;1302;61425;-81
2022/06/24 00:34:28;;;;;;;;;;;;;;;26.33;34.20;100656.20;105251;1303;73855;-81
2022/06/24 00:36:54;;;;;;;;;;;;;;;26.33;34.26;100654.41;105257;1302;61235;-81
2022/06/24 00:39:20;;;;;;;;;;;;;;;26.33;34.11;100652.13;104982;1302;61271;-81
2022/06/24 00:41:51;;;;;;;;;;;;;;;26.33;34.32;100650.84;104989;1302;61387;-81
2022/06/24 00:44:17;;;;;;;;;;;;;;;26.33;34.29;100646.38;105201;1303;72764;-81
2022/06/24 00:46:42;;;;;;;;;;;;;;;26.32;34.20;100648.54;104925;1302;61352;-81
2022/06/24 00:49:09;;;;;;;;;;;;;;;26.32;34.21;100648.43;105161;1302;61180;-81
2022/06/24 00:51:38;;;;;;;;;;;;;;;26.32;34.28;100655.30;104949;1301;61258;-81
2022/06/24 00:54:10;;;;;;;;;;;;;;;26.31;34.44;100655.52;105243;1302;73853;-81
2022/06/24 00:56:36;;;;;;;;;;;;;;;26.31;34.29;100655.16;105124;1303;76832;-81
2022/06/24 00:59:03;;;;;;;;;;;;;;;26.31;34.22;100653.17;105236;1302;61393;-81
2022/06/24 01:01:28;;;;;;;;;;;;;;;26.31;34.34;100654.09;104914;1302;61288;-81
2022/06/24 01:03:55;;;;;;;;;;;;;;;26.31;34.31;100652.48;105226;1302;61429;-81
2022/06/24 01:06:21;;;;;;;;;;;;;;;26.30;34.41;100647.84;105242;1302;61253;-81
2022/06/24 01:08:46;;;;;;;;;;;;;;;26.30;34.36;100646.59;105155;1302;61281;-81
2022/06/24 01:11:12;;;;;;;;;;;;;;;26.30;34.41;100644.63;105166;1303;61260;-81
2022/06/24 01:13:37;;;;;;;;;;;;;;;26.30;34.42;100641.75;105272;1303;61265;-81
2022/06/24 01:16:03;;;;;;;;;;;;;;;26.29;34.47;100639.30;105169;1303;73843;-81
2022/06/24 01:18:28;;;;;;;;;;;;;;;26.30;34.36;100641.98;105249;1302;61259;-81
2022/06/24 01:20:54;;;;;;;;;;;;;;;26.29;34.37;100643.13;104923;1302;61295;-81
2022/06/24 01:23:23;;;;;;;;;;;;;;;26.29;34.46;100642.34;105160;1302;61236;-81
2022/06/24 01:25:49;;;;;;;;;;;;;;;26.29;34.33;100642.24;105142;1302;61150;-81
2022/06/24 01:28:14;;;;;;;;;;;;;;;26.29;34.44;100644.23;105183;1302;62589;-81
2022/06/24 01:30:39;;;;;;;;;;;;;;;26.28;34.39;100645.88;105159;1302;61263;-81
2022/06/24 01:33:06;;;;;;;;;;;;;;;26.29;34.48;100643.15;105139;1302;62056;-81
2022/06/24 01:35:32;;;;;;;;;;;;;;;26.29;34.30;100640.45;105223;1302;61288;-81
2022/06/24 01:37:57;;;;;;;;;;;;;;;26.28;34.36;100643.20;105172;1301;61257;-81
2022/06/24 01:40:23;;;;;;;;;;;;;;;26.28;34.60;100639.79;105241;1302;61683;-81
2022/06/24 01:42:48;;;;;;;;;;;;;;;26.27;34.58;100645.80;105210;1301;61310;-80
2022/06/24 01:45:14;;;;;;;;;;;;;;;26.27;34.59;100642.92;105263;1302;61282;-81
2022/06/24 01:47:39;;;;;;;;;;;;;;;26.26;34.59;100641.70;105239;1303;61400;-81
2022/06/24 01:50:05;;;;;;;;;;;;;;;26.26;34.62;100641.02;105274;1303;61252;-81
2022/06/24 01:52:30;;;;;;;;;;;;;;;26.26;34.62;100637.93;105133;1303;75916;-81
2022/06/24 01:54:57;;;;;;;;;;;;;;;26.26;34.58;100637.95;105289;1303;61280;-82
2022/06/24 01:57:22;;;;;;;;;;;;;;;26.26;34.67;100637.77;105262;1303;61298;-82
2022/06/24 01:59:50;;;;;;;;;;;;;;;26.26;34.51;100636.72;105154;1303;61269;-81
2022/06/24 02:02:16;;;;;;;;;;;;;;;26.25;34.70;100635.85;105158;1303;61302;-81
2022/06/24 02:04:41;;;;;;;;;;;;;;;26.25;34.77;100634.61;105286;1301;61960;-81
2022/06/24 02:07:07;;;;;;;;;;;;;;;26.25;34.79;100630.96;105150;1302;61365;-81
2022/06/24 02:13:26;;;;;;;;;;;;;;;26.25;34.76;100631.39;105140;1301;61383;-81
2022/06/24 02:15:02;;;;;;;;;;;;;;;26.25;34.69;100630.66;105176;1302;75848;-82
2022/06/24 02:17:27;;;;;;;;;;;;;;;26.24;34.77;100626.37;105274;1303;61272;-82
2022/06/24 02:19:53;;;;;;;;;;;;;;;26.25;34.81;100627.98;105122;1303;61277;-82
2022/06/24 02:22:18;;;;;;;;;;;;;;;26.24;34.79;100629.80;105122;1303;61364;-82
2022/06/24 02:24:43;;;;;;;;;;;;;;;26.24;34.90;100623.86;105200;1302;61927;-82
2022/06/24 02:27:09;;;;;;;;;;;;;;;26.24;34.82;100625.70;105282;1303;61374;-81
2022/06/24 02:29:34;;;;;;;;;;;;;;;26.23;34.69;100621.95;105289;1303;61252;-81
2022/06/24 02:32:00;;;;;;;;;;;;;;;26.24;34.80;100620.84;105112;1301;61282;-81
2022/06/24 02:34:25;;;;;;;;;;;;;;;26.24;34.80;100612.20;105116;1303;61405;-81
2022/06/24 02:36:51;;;;;;;;;;;;;;;26.23;35.02;100613.92;105270;1302;61266;-81
2022/06/24 02:39:16;;;;;;;;;;;;;;;26.23;34.91;100612.27;105195;1302;61370;-81
2022/06/24 02:41:41;;;;;;;;;;;;;;;26.23;34.72;100611.39;104974;1303;61293;-81
2022/06/24 02:44:07;;;;;;;;;;;;;;;26.22;34.79;100607.26;105169;1303;61256;-81
2022/06/24 02:46:32;;;;;;;;;;;;;;;26.22;34.87;100606.58;105181;1303;61438;-81
2022/06/24 02:48:58;;;;;;;;;;;;;;;26.23;34.70;100607.09;105007;1302;61260;-81
2022/06/24 02:51:23;;;;;;;;;;;;;;;26.22;34.97;100603.48;105234;1302;61333;-81
2022/06/24 02:53:49;;;;;;;;;;;;;;;26.22;35.02;100603.88;105152;1302;61258;-81
2022/06/24 02:56:15;;;;;;;;;;;;;;;26.22;34.85;100603.16;105215;1301;61240;-81
2022/06/24 02:58:40;;;;;;;;;;;;;;;26.22;34.92;100603.55;105152;1302;61410;-81
2022/06/24 03:01:06;;;;;;;;;;;;;;;26.22;35.03;100604.40;105183;1303;62443;-81
2022/06/24 03:03:32;;;;;;;;;;;;;;;26.22;34.87;100605.48;105236;1301;75513;-81
2022/06/24 03:05:57;;;;;;;;;;;;;;;26.22;34.96;100608.90;105156;1303;61313;-81
2022/06/24 03:08:23;;;;;;;;;;;;;;;26.22;34.80;100609.48;105174;1303;61275;-81
2022/06/24 03:10:52;;;;;;;;;;;;;;;26.22;35.00;100609.27;105155;1303;61243;-81
2022/06/24 03:13:17;;;;;;;;;;;;;;;26.22;34.75;100607.34;104966;1302;61970;-81
2022/06/24 03:15:45;;;;;;;;;;;;;;;26.22;34.99;100609.34;105123;1301;61266;-81
2022/06/24 03:18:11;;;;;;;;;;;;;;;26.22;34.85;100611.61;104922;1302;61259;-81
2022/06/24 03:20:37;;;;;;;;;;;;;;;26.22;34.95;100614.17;104952;1302;61268;-81
2022/06/24 03:23:02;;;;;;;;;;;;;;;26.22;34.88;100609.83;105151;1303;61161;-81
2022/06/24 03:25:28;;;;;;;;;;;;;;;26.22;35.06;100609.84;105121;1303;61388;-81
2022/06/24 03:27:53;;;;;;;;;;;;;;;26.22;34.92;100615.57;105177;1302;61442;-81
2022/06/24 03:30:19;;;;;;;;;;;;;;;26.21;34.98;100613.17;105166;1303;61182;-81
2022/06/24 03:32:44;;;;;;;;;;;;;;;26.17;35.02;100614.70;105174;1303;61333;-81
2022/06/24 03:35:10;;;;;;;;;;;;;;;26.10;35.08;100610.05;105190;1303;61311;-81
2022/06/24 03:37:36;;;;;;;;;;;;;;;26.06;34.94;100619.84;105136;1303;61317;-81
2022/06/24 03:40:01;;;;;;;;;;;;;;;26.05;34.96;100621.55;105138;1302;61346;-81
2022/06/24 03:42:26;;;;;;;;;;;;;;;26.05;35.21;100624.85;105236;1302;61233;-81
2022/06/24 03:44:52;;;;;;;;;;;;;;;26.05;35.16;100629.35;105094;1302;61453;-81
2022/06/24 03:47:17;;;;;;;;;;;;;;;26.03;35.21;100629.49;105050;1301;61311;-82
2022/06/24 03:49:43;;;;;;;;;;;;;;;26.01;35.21;100630.92;105175;1303;61290;-82
2022/06/24 03:52:08;;;;;;;;;;;;;;;25.99;35.30;100635.45;105194;1303;61266;-81
2022/06/24 03:54:34;;;;;;;;;;;;;;;25.98;35.15;100635.20;105115;1303;61157;-82
2022/06/24 03:56:59;;;;;;;;;;;;;;;25.97;35.33;100634.80;104948;1302;61355;-82
2022/06/24 03:59:25;;;;;;;;;;;;;;;25.94;35.38;100633.70;105230;1301;61292;-82
2022/06/24 04:01:51;;;;;;;;;;;;;;;25.94;35.50;100636.83;105125;1301;61268;-82
2022/06/24 04:04:16;;;;;;;;;;;;;;;25.92;35.35;100636.05;105164;1303;61403;-81
2022/06/24 04:06:42;;;;;;;;;;;;;;;25.92;35.43;100641.45;105284;1301;61269;-81
2022/06/24 04:09:07;;;;;;;;;;;;;;;25.92;35.47;100643.80;105122;1302;61243;-81
2022/06/24 04:11:32;;;;;;;;;;;;;;;25.92;35.42;100647.63;105197;1301;61304;-81
2022/06/24 04:14:01;;;;;;;;;;;;;;;25.92;35.51;100644.17;105236;1302;61379;-81
2022/06/24 04:16:27;;;;;;;;;;;;;;;25.92;35.49;100648.88;105136;1303;61102;-82
2022/06/24 04:18:52;;;;;;;;;;;;;;;25.93;35.51;100650.27;105130;1302;61389;-82
2022/06/24 04:21:18;;;;;;;;;;;;;;;25.94;35.55;100650.33;105076;1303;61229;-81
2022/06/24 04:23:43;;;;;;;;;;;;;;;25.95;35.66;100652.77;105110;1301;61237;-81
2022/06/24 04:26:09;;;;;;;;;;;;;;;25.97;35.41;100658.41;105236;1301;61269;-81
2022/06/24 04:28:34;;;;;;;;;;;;;;;25.98;35.56;100655.58;105185;1303;61309;-82
2022/06/24 04:31:00;;;;;;;;;;;;;;;25.99;35.52;100658.88;105145;1302;61373;-82
2022/06/24 04:33:25;;;;;;;;;;;;;;;26.00;35.47;100658.58;105109;1303;61231;-81
2022/06/24 04:35:51;;;;;;;;;;;;;;;26.02;35.56;100660.05;105155;1300;61413;-81
2022/06/24 04:38:17;;;;;;;;;;;;;;;26.03;35.55;100662.11;105077;1302;61267;-83
2022/06/24 04:40:42;;;;;;;;;;;;;;;26.05;35.64;100661.81;104935;1303;61238;-82
2022/06/24 04:43:08;;;;;;;;;;;;;;;26.05;35.50;100663.60;104964;1303;61413;-81
2022/06/24 04:45:34;;;;;;;;;;;;;;;26.06;35.59;100661.16;104938;1302;61358;-81
2022/06/24 04:48:00;;;;;;;;;;;;;;;26.07;35.58;100662.63;105127;1303;61247;-81
2022/06/24 04:50:25;;;;;;;;;;;;;;;26.09;35.54;100663.20;105077;1302;61376;-82
2022/06/24 04:52:51;;;;;;;;;;;;;;;26.11;35.45;100662.83;105192;1301;61246;-81
2022/06/24 04:55:16;;;;;;;;;;;;;;;26.14;35.49;100665.84;104892;1300;61246;-81
2022/06/24 04:57:42;;;;;;;;;;;;;;;26.14;35.48;100668.85;104890;1302;61261;-81
2022/06/24 05:00:10;;;;;;;;;;;;;;;26.16;35.33;100670.88;104999;1302;61303;-81
2022/06/24 05:02:36;;;;;;;;;;;;;;;26.18;35.49;100674.45;105006;1302;59471;-81
2022/06/24 05:05:03;;;;;;;;;;;;;;;26.19;35.38;100675.79;104871;1303;61138;-81
2022/06/24 05:07:28;;;;;;;;;;;;;;;26.20;35.48;100676.92;105051;1302;61240;-81
2022/06/24 05:09:54;;;;;;;;;;;;;;;26.22;35.49;100679.45;105264;1303;61236;-81
2022/06/24 05:12:19;;;;;;;;;;;;;;;26.23;35.36;100684.02;105024;1303;61386;-81
2022/06/24 05:14:45;;;;;;;;;;;;;;;26.23;35.26;100687.99;105152;1301;61240;-81
2022/06/24 05:17:11;;;;;;;;;;;;;;;26.24;35.23;100684.11;105160;1302;61257;-81
2022/06/24 05:19:37;;;;;;;;;;;;;;;26.24;35.41;100686.99;105174;1303;75689;-81
2022/06/24 05:22:02;;;;;;;;;;;;;;;26.23;35.30;100688.40;105237;1302;61976;-81
2022/06/24 05:24:28;;;;;;;;;;;;;;;26.22;35.28;100692.27;105165;1301;61266;-81
2022/06/24 05:26:53;;;;;;;;;;;;;;;26.22;35.21;100692.41;104944;1302;61413;-81
2022/06/24 05:29:19;;;;;;;;;;;;;;;26.24;35.20;100689.92;105221;1302;61300;-83
2022/06/24 05:31:45;;;;;;;;;;;;;;;26.25;35.21;100692.17;105144;1303;61290;-84
2022/06/24 05:34:10;;;;;;;;;;;;;;;26.24;35.22;100694.19;104915;1302;61266;-84
2022/06/24 05:36:36;;;;;;;;;;;;;;;26.24;35.27;100693.36;104900;1301;61348;-84
2022/06/24 05:39:02;;;;;;;;;;;;;;;26.23;35.27;100692.39;105173;1300;59610;-83
2022/06/24 05:41:28;;;;;;;;;;;;;;;26.24;35.14;100690.47;104964;1302;61244;-83
2022/06/24 05:43:53;;;;;;;;;;;;;;;26.24;35.25;100688.64;104927;1302;61348;-83
2022/06/24 05:46:19;;;;;;;;;;;;;;;26.24;35.28;100689.89;104986;1302;61829;-83
2022/06/24 05:48:44;;;;;;;;;;;;;;;26.24;35.21;100690.25;104936;1302;61384;-83
2022/06/24 05:51:11;;;;;;;;;;;;;;;26.25;35.23;100690.48;105003;1302;61277;-83
2022/06/24 05:56:20;;;;;;;;;;;;;;;26.29;35.25;100699.06;105263;1302;61258;-83
2022/06/24 05:58:46;;;;;;;;;;;;;;;26.29;35.30;100700.05;104944;1302;61293;-83
2022/06/24 06:01:11;;;;;;;;;;;;;;;26.31;35.21;100698.65;105224;1302;61239;-83
2022/06/24 06:03:37;;;;;;;;;;;;;;;26.32;35.20;100702.48;104763;1302;61226;-81
2022/06/24 06:06:02;;;;;;;;;;;;;;;26.34;35.17;100699.14;104976;1302;61816;-81
2022/06/24 06:08:27;;;;;;;;;;;;;;;26.34;35.25;100702.19;105062;1303;61284;-81
2022/06/24 06:10:53;;;;;;;;;;;;;;;26.35;35.38;100703.12;105180;1302;61323;-81
2022/06/24 06:13:18;;;;;;;;;;;;;;;26.36;35.30;100704.99;105178;1301;61403;-81
2022/06/24 06:15:44;;;;;;;;;;;;;;;26.37;35.43;100699.71;105119;1302;61263;-81
2022/06/24 06:18:10;;;;;;;;;;;;;;;26.37;35.38;100700.74;105118;1302;61422;-81
2022/06/24 06:20:35;;;;;;;;;;;;;;;26.38;35.36;100699.77;105077;1302;62243;-81
2022/06/24 06:23:01;;;;;;;;;;;;;;;26.38;35.40;100701.94;105128;1301;61316;-79
2022/06/24 06:25:26;;;;;;;;;;;;;;;26.38;35.25;100700.42;104900;1301;61389;-82
2022/06/24 06:27:52;;;;;;;;;;;;;;;26.38;35.27;100703.17;104325;1302;767787;-84
2022/06/24 06:30:17;;;;;;;;;;;;;;;26.38;35.30;100702.41;105151;1302;61293;-83
2022/06/24 06:32:43;;;;;;;;;;;;;;;26.38;35.24;100702.27;105078;1303;61203;-82
2022/06/24 06:35:09;;;;;;;;;;;;;;;26.38;35.34;100703.54;105245;1302;61276;-82
2022/06/24 06:37:34;;;;;;;;;;;;;;;26.38;35.10;100699.24;104909;1302;61205;-82
2022/06/24 06:40:00;;;;;;;;;;;;;;;26.38;35.06;100701.39;105014;1302;61344;-82
2022/06/24 06:42:25;;;;;;;;;;;;;;;26.37;35.07;100699.86;105148;1303;61458;-82
2022/06/24 06:44:50;;;;;;;;;;;;;;;26.36;35.25;100704.46;105079;1301;61143;-82
2022/06/24 06:47:16;;;;;;;;;;;;;;;26.37;35.13;100702.80;105195;1302;61263;-82
2022/06/24 06:49:41;;;;;;;;;;;;;;;26.37;34.93;100701.65;105126;1302;59839;-83
2022/06/24 06:52:07;;;;;;;;;;;;;;;26.38;34.87;100706.63;104946;1303;61249;-82
2022/06/24 06:54:32;;;;;;;;;;;;;;;26.38;35.14;100707.49;105113;1301;61308;-82
2022/06/24 06:56:58;;;;;;;;;;;;;;;26.38;35.06;100709.13;105038;1303;61370;-82
2022/06/24 06:59:23;;;;;;;;;;;;;;;26.38;35.03;100703.52;105033;1301;61307;-82
2022/06/24 07:01:49;;;;;;;;;;;;;;;26.40;34.97;100703.75;105077;1302;61253;-82
2022/06/24 07:04:14;;;;;;;;;;;;;;;26.40;34.97;100699.91;105062;1303;61313;-82
2022/06/24 07:06:40;;;;;;;;;;;;;;;26.41;35.01;100701.27;105123;1303;61387;-82
2022/06/24 07:09:05;;;;;;;;;;;;;;;26.42;34.96;100701.59;104910;1302;61378;-82
2022/06/24 07:11:31;;;;;;;;;;;;;;;26.42;35.00;100701.39;104918;1302;61277;-82
2022/06/24 07:13:56;;;;;;;;;;;;;;;26.42;35.06;100703.15;105116;1301;61358;-82
2022/06/24 07:16:22;;;;;;;;;;;;;;;26.42;34.95;100697.54;104861;1301;61311;-82
2022/06/24 07:18:48;;;;;;;;;;;;;;;26.42;34.79;100700.67;104844;1302;61278;-81
2022/06/24 07:21:13;;;;;;;;;;;;;;;26.40;34.79;100695.30;104911;1302;61254;-81
2022/06/24 07:23:39;;;;;;;;;;;;;;;26.38;34.88;100697.05;104837;1302;61370;-81
2022/06/24 07:26:05;;;;;;;;;;;;;;;26.36;34.64;100693.67;104861;1302;61456;-82
2022/06/24 07:28:30;;;;;;;;;;;;;;;26.33;34.59;100692.73;104777;1302;61224;-81
2022/06/24 07:30:56;;;;;;;;;;;;;;;26.30;34.46;100686.89;104932;1302;61424;-81
2022/06/24 07:33:23;;;;;;;;;;;;;;;26.28;34.28;100683.42;104965;1302;61288;-81
2022/06/24 07:35:49;;;;;;;;;;;;;;;26.25;34.31;100678.98;104816;1302;61835;-81
2022/06/24 07:38:14;;;;;;;;;;;;;;;26.23;34.34;100676.45;105048;1302;61345;-81
2022/06/24 07:40:40;;;;;;;;;;;;;;;26.23;34.29;100677.23;104975;1302;61318;-81
2022/06/24 07:43:05;;;;;;;;;;;;;;;26.22;34.41;100676.75;104972;1303;61275;-81
2022/06/24 07:45:31;;;;;;;;;;;;;;;26.22;34.29;100676.23;104810;1302;61269;-82
2022/06/24 07:47:57;;;;;;;;;;;;;;;26.22;34.47;100678.36;105064;1302;61247;-82
2022/06/24 07:50:22;;;;;;;;;;;;;;;26.23;34.37;100672.36;104783;1302;62091;-82
2022/06/24 07:52:48;;;;;;;;;;;;;;;26.22;34.17;100663.92;105096;1302;61254;-81
2022/06/24 07:57:57;;;;;;;;;;;;;;;26.24;34.20;100665.04;104869;1302;61237;-81
2022/06/24 08:00:23;;;;;;;;;;;;;;;26.25;34.28;100660.04;105052;1302;61335;-82
2022/06/24 08:02:48;;;;;;;;;;;;;;;26.26;34.19;100665.85;105107;1302;61359;-81
2022/06/24 08:05:15;;;;;;;;;;;;;;;26.27;33.97;100663.13;104892;1302;61394;-81
2022/06/24 08:07:41;;;;;;;;;;;;;;;26.28;34.03;100664.14;105109;1301;61274;-81
2022/06/24 08:10:06;;;;;;;;;;;;;;;26.25;33.87;100663.09;104957;1303;61259;-81
2022/06/24 08:12:32;;;;;;;;;;;;;;;26.23;33.68;100658.81;104898;1302;73012;-81
2022/06/24 08:14:57;;;;;;;;;;;;;;;26.23;33.77;100658.84;104719;1301;61317;-82
2022/06/24 08:17:22;;;;;;;;;;;;;;;26.24;33.76;100659.45;104926;1302;61246;-81
2022/06/24 08:19:48;;;;;;;;;;;;;;;26.24;33.64;100660.33;104939;1302;61377;-82
2022/06/24 08:22:14;;;;;;;;;;;;;;;26.25;33.87;100661.50;104789;1302;61360;-81
2022/06/24 08:24:40;;;;;;;;;;;;;;;26.27;33.92;100660.98;104730;1302;74145;-81
2022/06/24 08:27:06;;;;;;;;;;;;;;;26.29;33.82;100658.98;104919;1302;61299;-81
2022/06/24 08:29:32;;;;;;;;;;;;;;;26.31;33.88;100656.06;104833;1302;61278;-81
2022/06/24 08:31:58;;;;;;;;;;;;;;;26.33;33.76;100658.73;104885;1302;61291;-82
2022/06/24 08:34:24;;;;;;;;;;;;;;;26.36;33.88;100657.93;104861;1302;61278;-82
2022/06/24 08:36:50;;;;;;;;;;;;;;;26.36;33.66;100655.55;104878;1302;61280;-81
2022/06/24 08:39:16;;;;;;;;;;;;;;;26.37;33.73;100653.66;104832;1302;61333;-82
2022/06/24 08:41:44;;;;;;;;;;;;;;;26.40;33.56;100656.87;104848;1302;61367;-81
2022/06/24 08:44:10;;;;;;;;;;;;;;;26.42;33.58;100654.30;104814;1302;61348;-81
2022/06/24 08:46:36;;;;;;;;;;;;;;;26.43;33.50;100654.72;105054;1302;61254;-81
2022/06/24 08:49:01;;;;;;;;;;;;;;;26.44;33.43;100651.74;104910;1302;61267;-81
2022/06/24 08:51:27;;;;;;;;;;;;;;;26.44;33.52;100648.85;105118;1302;61265;-81
2022/06/24 08:54:00;;;;;;;;;;;;;;;26.45;33.31;100644.64;105043;1302;61298;-81
2022/06/24 08:56:26;;;;;;;;;;;;;;;26.47;33.53;100640.31;105091;1302;73780;-82
2022/06/24 08:58:52;;;;;;;;;;;;;;;26.49;33.26;100641.70;105026;1301;61291;-81
2022/06/24 09:01:17;;;;;;;;;;;;;;;26.52;33.16;100641.80;105089;1301;61248;-81
2022/06/24 09:03:46;;;;;;;;;;;;;;;26.53;32.98;100641.62;105153;1302;61252;-81
2022/06/24 09:06:15;;;;;;;;;;;;;;;26.54;33.14;100642.27;104832;1303;61388;-81
2022/06/24 09:08:44;;;;;;;;;;;;;;;26.53;32.96;100642.60;104827;1301;74117;-81
2022/06/24 09:11:10;;;;;;;;;;;;;;;26.52;32.91;100647.41;105135;1302;61158;-81
2022/06/24 09:13:47;;;;;;;;;;;;;;;26.51;32.88;100649.10;104867;1301;61113;-81
2022/06/24 09:16:12;;;;;;;;;;;;;;;26.50;32.96;100650.48;105045;1302;73678;-81
2022/06/24 09:18:38;;;;;;;;;;;;;;;26.47;32.94;100646.95;105122;1302;61951;-81
2022/06/24 09:21:05;;;;;;;;;;;;;;;26.47;33.03;100646.10;105067;1303;61326;-81
2022/06/24 09:23:31;;;;;;;;;;;;;;;26.47;32.95;100643.90;104776;1302;61303;-81
2022/06/24 09:25:59;;;;;;;;;;;;;;;26.47;32.93;100641.05;104934;1301;61284;-81
2022/06/24 09:28:29;;;;;;;;;;;;;;;26.47;33.18;100639.57;105046;1303;75071;-81
2022/06/24 09:31:02;;;;;;;;;;;;;;;26.48;33.08;100642.05;104886;1302;61372;-81
2022/06/24 09:33:31;;;;;;;;;;;;;;;26.48;32.95;100642.72;105023;1302;61399;-82
2022/06/24 09:36:00;;;;;;;;;;;;;;;26.46;32.78;100640.58;105052;1303;72315;-82
2022/06/24 09:38:26;;;;;;;;;;;;;;;26.42;32.57;100634.60;105117;1301;75766;-81
2022/06/24 09:40:58;;;;;;;;;;;;;;;26.37;32.49;100632.54;105147;1302;61245;-82
2022/06/24 09:43:27;;;;;;;;;;;;;;;26.33;32.60;100630.49;104875;1302;61321;-81
2022/06/24 09:45:52;;;;;;;;;;;;;;;26.32;32.63;100631.12;104919;1302;73813;-81
2022/06/24 09:48:28;;;;;;;;;;;;;;;26.34;32.79;100634.19;105132;1302;61979;-81
2022/06/24 09:51:03;;;;;;;;;;;;;;;26.35;32.58;100631.84;105127;1302;61635;-82
2022/06/24 09:53:32;;;;;;;;;;;;;;;26.37;32.51;100632.04;105072;1302;61927;-82
2022/06/24 09:55:58;;;;;;;;;;;;;;;26.40;32.72;100634.48;104892;1302;72836;-81
2022/06/24 09:58:24;;;;;;;;;;;;;;;26.43;32.70;100635.77;105064;1301;61278;-81
2022/06/24 10:00:51;;;;;;;;;;;;;;;26.46;32.62;100631.37;104767;1302;61172;-80
2022/06/24 10:03:17;;;;;;;;;;;;;;;26.47;32.73;100626.36;104874;1302;61260;-81
2022/06/24 10:05:44;;;;;;;;;;;;;;;26.48;32.64;100624.42;104886;1302;61278;-81
2022/06/24 10:08:10;;;;;;;;;;;;;;;26.51;32.61;100622.20;104861;1302;61250;-81
2022/06/24 10:10:36;;;;;;;;;;;;;;;26.50;32.10;100618.67;105077;1302;61235;-81
2022/06/24 10:13:07;;;;;;;;;;;;;;;26.51;32.15;100620.06;104914;1300;61356;-81
2022/06/24 10:15:33;;;;;;;;;;;;;;;26.50;32.13;100622.09;104928;1302;74052;-81
2022/06/24 10:17:58;;;;;;;;;;;;;;;26.51;32.07;100616.45;105155;1302;61703;-81
2022/06/24 10:20:24;;;;;;;;;;;;;;;26.51;32.25;100615.11;105179;1302;61274;-81
2022/06/24 10:22:50;;;;;;;;;;;;;;;26.52;32.04;100613.45;104920;1303;61280;-81
2022/06/24 10:25:18;;;;;;;;;;;;;;;26.53;32.03;100610.05;104712;1303;61330;-81
2022/06/24 10:27:59;;;;;;;;;;;;;;;26.53;31.94;100605.59;104687;1303;61198;-81
2022/06/24 10:30:40;;;;;;;;;;;;;;;26.52;31.88;100608.89;104761;1303;61405;-81
2022/06/24 10:33:19;;;;;;;;;;;;;;;26.52;31.88;100613.29;104739;1303;61284;-81
2022/06/24 10:36:04;;;;;;;;;;;;;;;26.52;31.94;100610.58;104706;1303;73904;-81
2022/06/24 10:38:37;;;;;;;;;;;;;;;26.52;32.13;100605.88;104670;1303;75897;-81
2022/06/24 10:41:03;;;;;;;;;;;;;;;26.53;31.91;100609.40;104828;1304;61151;-81
2022/06/24 10:43:36;;;;;;;;;;;;;;;26.54;32.28;100601.51;104898;1303;61404;-81
2022/06/24 10:46:22;;;;;;;;;;;;;;;26.56;31.92;100599.73;104731;1303;72788;-81
2022/06/24 10:48:53;;;;;;;;;;;;;;;26.55;31.89;100596.67;104731;1306;75970;-81
2022/06/24 10:51:19;;;;;;;;;;;;;;;26.56;31.92;100592.30;104735;1306;61183;-81
2022/06/24 10:54:12;;;;;;;;;;;;;;;26.57;32.00;100590.04;104844;1303;61211;-81
2022/06/24 10:56:59;;;;;;;;;;;;;;;26.61;31.80;100593.63;105067;1301;73170;-81
2022/06/24 10:59:24;;;;;;;;;;;;;;;26.64;31.55;100595.66;104423;1306;75493;-81
2022/06/24 11:01:50;;;;;;;;;;;;;;;26.65;31.49;100589.62;104495;1308;61290;-81
2022/06/24 11:04:25;;;;;;;;;;;;;;;26.65;31.41;100593.80;104567;1308;61269;-81
2022/06/24 11:07:13;;;;;;;;;;;;;;;26.64;31.42;100595.83;104592;1308;73795;-81
2022/06/24 11:09:39;;;;;;;;;;;;;;;26.64;31.73;100598.46;104486;1306;76336;-81
2022/06/24 11:12:05;;;;;;;;;;;;;;;26.62;31.63;100599.09;104536;1309;61385;-81
2022/06/24 11:14:30;;;;;;;;;;;;;;;26.62;31.46;100590.12;104570;1308;61278;-81
2022/06/24 11:16:56;;;;;;;;;;;;;;;26.62;31.36;100590.85;104544;1308;61369;-81
2022/06/24 11:19:22;;;;;;;;;;;;;;;26.61;31.65;100593.59;104540;1307;61304;-81
2022/06/24 11:21:51;;;;;;;;;;;;;;;26.60;31.39;100591.66;104705;1307;61417;-81
2022/06/24 11:24:19;;;;;;;;;;;;;;;26.60;31.49;100588.81;104594;1307;61383;-81
2022/06/24 11:27:08;;;;;;;;;;;;;;;26.60;31.63;100585.23;104602;1307;61397;-81
2022/06/24 11:29:52;;;;;;;;;;;;;;;26.60;31.50;100581.10;104653;1307;73790;-81
2022/06/24 11:32:17;;;;;;;;;;;;;;;26.60;31.67;100576.20;104660;1307;74716;-81
2022/06/24 11:34:44;;;;;;;;;;;;;;;26.60;31.67;100576.16;104616;1307;61233;-81
2022/06/24 11:37:10;;;;;;;;;;;;;;;26.60;31.55;100580.16;104846;1302;61290;-81
2022/06/24 11:39:35;;;;;;;;;;;;;;;26.60;31.52;100583.05;105179;1303;61271;-81
2022/06/24 11:42:00;;;;;;;;;;;;;;;26.60;31.82;100582.34;105195;1302;61334;-81
2022/06/24 11:44:32;;;;;;;;;;;;;;;26.59;31.69;100579.84;105083;1302;61428;-81
2022/06/24 11:46:58;;;;;;;;;;;;;;;26.59;31.64;100581.73;105194;1302;61017;-81
2022/06/24 11:49:24;;;;;;;;;;;;;;;26.58;31.70;100580.39;105219;1302;61281;-81
2022/06/24 11:51:50;;;;;;;;;;;;;;;26.57;31.79;100578.59;105038;1302;61214;-81
2022/06/24 11:54:16;;;;;;;;;;;;;;;26.57;31.69;100577.20;105032;1302;61266;-81
2022/06/24 11:56:42;;;;;;;;;;;;;;;26.56;31.75;100574.02;105136;1301;61259;-81
2022/06/24 11:59:08;;;;;;;;;;;;;;;26.56;31.98;100574.02;105009;1302;61351;-81
2022/06/24 12:01:33;;;;;;;;;;;;;;;26.57;32.31;100574.90;105201;1302;61277;-81
2022/06/24 12:03:59;;;;;;;;;;;;;;;26.57;32.58;100572.46;104989;1303;74741;-81
2022/06/24 12:06:25;;;;;;;;;;;;;;;26.58;32.46;100571.73;105178;1302;61359;-81
2022/06/24 12:08:51;;;;;;;;;;;;;;;26.58;32.52;100568.77;105110;1302;61278;-81
2022/06/24 12:11:18;;;;;;;;;;;;;;;26.59;32.73;100567.42;104995;1302;61203;-81
2022/06/24 12:13:54;;;;;;;;;;;;;;;26.60;32.84;100573.34;104996;1302;61304;-81
2022/06/24 12:16:19;;;;;;;;;;;;;;;26.60;32.87;100567.52;105165;1302;74717;-81
2022/06/24 12:18:45;;;;;;;;;;;;;;;26.61;32.83;100570.71;105003;1302;61273;-81
2022/06/24 12:21:10;;;;;;;;;;;;;;;26.62;32.90;100571.17;104977;1302;61287;-81
2022/06/24 12:23:37;;;;;;;;;;;;;;;26.62;32.87;100568.63;105004;1302;61294;-81
2022/06/24 12:26:06;;;;;;;;;;;;;;;26.62;33.05;100568.95;104965;1302;61320;-81
2022/06/24 12:28:32;;;;;;;;;;;;;;;26.63;32.86;100568.39;105153;1302;61321;-82
2022/06/24 12:30:57;;;;;;;;;;;;;;;26.63;33.19;100567.29;105137;1302;61366;-82
2022/06/24 12:33:24;;;;;;;;;;;;;;;26.63;33.15;100569.59;105161;1302;59779;-82